createdAt,value
2022-07-30T00:00:28.732Z,1.65
2022-07-30T00:02:56.780Z,1.30
2022-07-30T00:05:25.214Z,1.15
2022-07-30T00:07:53.572Z,1.13
2022-07-30T00:10:23.249Z,1.00
2022-07-30T00:12:51.627Z,1.30
2022-07-30T00:15:19.665Z,1.40
2022-07-30T00:17:49.063Z,1.00
2022-07-30T00:20:18.481Z,1.30
2022-07-30T00:22:47.130Z,1.23
2022-07-30T00:25:15.339Z,1.23
2022-07-30T00:27:44.616Z,1.15
2022-07-30T00:30:13.727Z,1.67
2022-07-30T00:32:41.849Z,1.13
2022-07-30T00:35:11.072Z,1.10
2022-07-30T00:37:39.406Z,1.20
2022-07-30T00:40:09.343Z,0.80
2022-07-30T00:42:46.563Z,1.20
2022-07-30T00:45:17.643Z,1.40
2022-07-30T00:47:46.248Z,1.10
2022-07-30T00:50:15.850Z,1.10
2022-07-30T00:52:45.201Z,1.10
2022-07-30T00:55:15.521Z,1.40
2022-07-30T00:57:44.765Z,0.98
2022-07-30T01:00:16.961Z,1.40
2022-07-30T01:02:45.327Z,1.40
2022-07-30T01:05:14.019Z,1.55
2022-07-30T01:07:42.925Z,1.10
2022-07-30T01:10:14.942Z,1.33
2022-07-30T01:12:44.919Z,1.27
2022-07-30T01:15:13.069Z,1.08
2022-07-30T01:17:41.842Z,1.35
2022-07-30T01:20:18.971Z,1.25
2022-07-30T01:23:08.705Z,1.10
2022-07-30T01:25:39.939Z,1.40
2022-07-30T01:28:18.590Z,1.10
2022-07-30T01:30:49.998Z,1.15
2022-07-30T01:33:21.483Z,1.20
2022-07-30T01:35:50.834Z,1.35
2022-07-30T01:38:23.442Z,1.25
2022-07-30T01:40:54.248Z,1.45
2022-07-30T01:43:26.142Z,1.10
2022-07-30T01:45:56.524Z,1.50
2022-07-30T01:48:27.663Z,1.30
2022-07-30T01:51:00.597Z,1.13
2022-07-30T01:53:32.952Z,1.30
2022-07-30T01:56:03.131Z,1.00
2022-07-30T01:58:36.585Z,1.05
2022-07-30T02:01:15.995Z,1.23
2022-07-30T02:03:45.972Z,1.30
2022-07-30T02:06:39.097Z,1.30
2022-07-30T02:09:15.945Z,1.33
2022-07-30T02:12:08.335Z,1.20
2022-07-30T02:14:52.736Z,1.30
2022-07-30T02:17:39.612Z,1.55
2022-07-30T02:20:13.870Z,1.27
2022-07-30T02:22:46.975Z,1.17
2022-07-30T02:25:21.770Z,1.40
2022-07-30T02:27:57.161Z,1.20
2022-07-30T02:30:30.513Z,1.02
2022-07-30T02:33:05.775Z,1.40
2022-07-30T02:35:35.134Z,1.10
2022-07-30T02:38:03.842Z,1.20
2022-07-30T02:40:33.101Z,1.25
2022-07-30T02:43:02.504Z,1.58
2022-07-30T02:45:31.485Z,1.10
2022-07-30T02:48:06.794Z,1.27
2022-07-30T02:50:35.394Z,1.10
2022-07-30T02:53:07.227Z,1.33
2022-07-30T02:55:36.568Z,1.15
2022-07-30T02:58:07.059Z,1.30
2022-07-30T03:00:36.077Z,1.35
2022-07-30T03:03:07.712Z,1.20
2022-07-30T03:05:39.909Z,1.38
2022-07-30T03:08:09.918Z,1.48
2022-07-30T03:10:39.959Z,1.45
2022-07-30T03:13:09.893Z,1.27
2022-07-30T03:15:40.218Z,1.50
2022-07-30T03:18:14.652Z,1.50
2022-07-30T03:20:47.475Z,1.40
2022-07-30T03:23:19.549Z,1.13
2022-07-30T03:26:02.056Z,1.50
2022-07-30T03:28:34.481Z,1.25
2022-07-30T03:31:03.319Z,1.42
2022-07-30T03:33:38.601Z,1.25
2022-07-30T03:36:10.172Z,1.35
2022-07-30T03:38:40.938Z,1.45
2022-07-30T03:41:11.932Z,1.25
2022-07-30T03:43:43.095Z,1.50
2022-07-30T03:46:13.834Z,1.38
2022-07-30T03:48:46.467Z,1.70
2022-07-30T03:51:15.145Z,1.60
2022-07-30T03:53:45.398Z,1.50
2022-07-30T03:56:33.753Z,1.60
2022-07-30T03:59:20.577Z,1.48
2022-07-30T04:01:49.069Z,1.35
2022-07-30T04:04:43.647Z,1.35
2022-07-30T04:07:12.119Z,2.25
2022-07-30T04:09:40.086Z,1.30
2022-07-30T04:12:25.552Z,1.80
2022-07-30T04:14:54.923Z,1.70
2022-07-30T04:17:33.772Z,1.60
2022-07-30T04:20:22.391Z,1.60
2022-07-30T04:22:51.593Z,1.45
2022-07-30T04:25:24.633Z,1.60
2022-07-30T04:28:03.086Z,1.90
2022-07-30T04:30:36.353Z,1.40
2022-07-30T04:33:05.785Z,1.63
2022-07-30T04:35:51.347Z,1.95
2022-07-30T04:38:37.812Z,1.77
2022-07-30T04:41:06.089Z,2.10
2022-07-30T04:43:54.544Z,1.90
2022-07-30T04:46:24.691Z,2.03
2022-07-30T04:48:54.132Z,1.77
2022-07-30T04:51:36.433Z,1.50
2022-07-30T04:54:09.113Z,1.70
2022-07-30T04:56:53.170Z,1.90
2022-07-30T04:59:29.845Z,1.98
2022-07-30T05:02:00.391Z,2.05
2022-07-30T05:04:31.833Z,1.85
2022-07-30T05:07:02.022Z,2.05
2022-07-30T05:09:31.372Z,1.92
2022-07-30T05:11:59.723Z,2.00
2022-07-30T05:14:29.100Z,1.98
2022-07-30T05:16:57.340Z,2.10
2022-07-30T05:19:25.983Z,1.88
2022-07-30T05:21:54.425Z,2.20
2022-07-30T05:24:22.708Z,2.15
2022-07-30T05:26:57.111Z,2.40
2022-07-30T05:29:27.770Z,2.47
2022-07-30T05:32:10.665Z,2.00
2022-07-30T05:34:39.416Z,2.15
2022-07-30T05:37:09.807Z,1.80
2022-07-30T05:39:57.235Z,2.30
2022-07-30T05:43:01.668Z,2.53
2022-07-30T05:45:30.325Z,1.98
2022-07-30T05:47:58.609Z,2.28
2022-07-30T05:50:26.757Z,2.13
2022-07-30T05:52:56.293Z,2.30
2022-07-30T05:55:50.468Z,2.10
2022-07-30T05:58:38.703Z,2.33
2022-07-30T06:01:07.971Z,2.40
2022-07-30T06:03:44.617Z,3.10
2022-07-30T06:06:35.644Z,2.03
2022-07-30T06:09:04.081Z,2.30
2022-07-30T06:11:32.111Z,2.42
2022-07-30T06:14:01.380Z,2.50
2022-07-30T06:16:29.807Z,2.50
2022-07-30T06:18:57.920Z,2.22
2022-07-30T06:22:05.879Z,3.23
2022-07-30T06:24:29.024Z,2.85
2022-07-30T06:27:19.850Z,2.55
2022-07-30T06:29:49.166Z,2.28
2022-07-30T06:32:19.294Z,2.63
2022-07-30T06:34:47.659Z,2.60
2022-07-30T06:37:16.115Z,2.40
2022-07-30T06:39:57.790Z,2.50
2022-07-30T06:42:26.938Z,2.75
2022-07-30T06:45:23.659Z,2.47
2022-07-30T06:48:14.570Z,2.63
2022-07-30T06:50:46.458Z,2.88
2022-07-30T06:53:14.667Z,2.72
2022-07-30T06:56:02.967Z,2.70
2022-07-30T06:58:40.844Z,2.40
2022-07-30T07:01:29.510Z,2.78
2022-07-30T07:03:58.685Z,2.80
2022-07-30T07:06:27.162Z,2.58
2022-07-30T07:08:56.161Z,2.88
2022-07-30T07:11:33.942Z,2.78
2022-07-30T07:14:07.214Z,2.90
2022-07-30T07:16:36.475Z,2.60
2022-07-30T07:20:00.879Z,2.78
2022-07-30T07:22:18.922Z,2.95
2022-07-30T07:24:47.336Z,2.58
2022-07-30T07:27:23.497Z,2.70
2022-07-30T07:30:01.697Z,2.97
2022-07-30T07:32:35.409Z,2.58
2022-07-30T07:35:05.499Z,3.20
2022-07-30T07:37:35.696Z,3.00
2022-07-30T07:40:05.907Z,2.50
2022-07-30T07:42:38.661Z,2.63
2022-07-30T07:45:10.116Z,3.20
2022-07-30T07:48:01.245Z,2.63
2022-07-30T07:50:45.713Z,2.75
2022-07-30T07:53:22.448Z,2.63
2022-07-30T07:55:51.036Z,2.95
2022-07-30T07:58:26.040Z,2.97
2022-07-30T08:00:58.262Z,2.80
2022-07-30T08:03:48.700Z,2.78
2022-07-30T08:06:36.924Z,2.88
2022-07-30T08:09:23.703Z,2.28
2022-07-30T08:12:18.163Z,2.58
2022-07-30T08:15:01.470Z,3.10
2022-07-30T08:17:48.692Z,3.05
2022-07-30T08:20:25.320Z,3.30
2022-07-30T08:22:53.526Z,2.87
2022-07-30T08:25:24.529Z,3.38
2022-07-30T08:27:53.983Z,3.20
2022-07-30T08:30:24.160Z,3.10
2022-07-30T08:32:52.234Z,3.05
2022-07-30T08:35:20.711Z,3.83
2022-07-30T08:37:48.934Z,2.97
2022-07-30T08:40:20.518Z,3.25
2022-07-30T08:43:01.153Z,3.73
2022-07-30T08:45:34.738Z,2.78
2022-07-30T08:48:24.002Z,3.17
2022-07-30T08:50:53.128Z,2.85
2022-07-30T08:53:35.846Z,3.22
2022-07-30T08:56:05.554Z,3.08
2022-07-30T08:58:37.804Z,2.95
2022-07-30T09:01:06.882Z,3.33
2022-07-30T09:03:37.792Z,3.28
2022-07-30T09:06:13.621Z,3.30
2022-07-30T09:08:46.319Z,3.00
2022-07-30T09:11:14.530Z,2.97
2022-07-30T09:13:44.714Z,3.50
2022-07-30T09:18:54.078Z,3.40
2022-07-30T09:21:29.484Z,3.63
2022-07-30T09:27:05.285Z,3.45
2022-07-30T09:30:00.222Z,3.50
2022-07-30T09:32:56.078Z,3.58
2022-07-30T09:35:40.027Z,3.25
2022-07-30T09:38:12.869Z,3.28
2022-07-30T09:41:00.180Z,3.85
2022-07-30T09:43:52.483Z,3.65
2022-07-30T09:46:52.007Z,3.90
2022-07-30T09:49:29.577Z,3.60
2022-07-30T09:51:59.840Z,3.55
2022-07-30T09:54:59.010Z,3.70
2022-07-30T09:57:30.463Z,3.75
2022-07-30T10:00:39.420Z,4.32
2022-07-30T10:03:43.900Z,3.80
2022-07-30T10:06:46.798Z,4.95
2022-07-30T10:09:37.423Z,3.88
2022-07-30T10:12:11.536Z,4.28
2022-07-30T10:14:46.620Z,4.00
2022-07-30T10:17:18.178Z,3.60
2022-07-30T10:20:08.384Z,3.15
2022-07-30T10:22:56.026Z,4.13
2022-07-30T10:25:54.899Z,4.03
2022-07-30T10:28:43.822Z,3.35
2022-07-30T10:31:49.243Z,3.38
2022-07-30T10:34:00.646Z,3.42
2022-07-30T10:36:29.552Z,3.45
2022-07-30T10:38:58.566Z,3.30
2022-07-30T10:41:53.954Z,3.42
2022-07-30T10:44:52.236Z,3.40
2022-07-30T10:47:23.708Z,3.00
2022-07-30T10:50:15.872Z,3.58
2022-07-30T10:52:55.782Z,3.50
2022-07-30T10:55:36.904Z,3.17
2022-07-30T10:58:14.518Z,3.22
2022-07-30T11:00:52.997Z,3.80
2022-07-30T11:03:40.088Z,3.45
2022-07-30T11:06:29.569Z,3.03
2022-07-30T11:08:58.476Z,2.97
2022-07-30T11:12:04.967Z,3.65
2022-07-30T11:14:20.327Z,3.10
2022-07-30T11:16:51.498Z,3.17
2022-07-30T11:19:55.987Z,3.03
2022-07-30T11:22:36.240Z,3.35
2022-07-30T11:25:13.241Z,3.30
2022-07-30T11:27:49.015Z,3.13
2022-07-30T11:34:51.227Z,3.08
2022-07-30T11:37:22.164Z,3.65
2022-07-30T11:40:00.195Z,3.47
2022-07-30T11:42:39.914Z,3.50
2022-07-30T11:45:17.176Z,3.28
2022-07-30T11:47:53.939Z,3.15
2022-07-30T11:50:26.328Z,3.45
2022-07-30T11:53:03.724Z,3.92
2022-07-30T11:55:39.717Z,3.50
2022-07-30T11:58:27.106Z,3.10
2022-07-30T12:00:58.609Z,3.47
2022-07-30T12:03:27.100Z,3.35
2022-07-30T12:06:27.442Z,3.20
2022-07-30T12:08:58.696Z,3.30
2022-07-30T12:11:34.406Z,3.35
2022-07-30T12:14:03.669Z,3.40
2022-07-30T12:16:33.022Z,3.53
2022-07-30T12:19:06.629Z,3.17
2022-07-30T12:21:37.694Z,3.33
2022-07-30T12:24:16.018Z,3.35
2022-07-30T12:26:44.443Z,3.30
2022-07-30T12:29:15.542Z,3.30
2022-07-30T12:34:25.606Z,3.60
2022-07-30T12:36:55.915Z,3.35
2022-07-30T12:39:26.568Z,3.38
2022-07-30T12:41:56.327Z,3.40
2022-07-30T12:44:46.719Z,3.03
2022-07-30T12:47:31.202Z,3.63
2022-07-30T12:50:01.878Z,3.38
2022-07-30T12:52:34.746Z,3.40
2022-07-30T12:55:13.031Z,2.88
2022-07-30T12:58:07.699Z,3.40
2022-07-30T13:00:48.503Z,3.63
2022-07-30T13:03:26.281Z,3.45
2022-07-30T13:05:58.145Z,3.53
2022-07-30T13:08:49.212Z,3.50
2022-07-30T13:11:20.185Z,3.55
2022-07-30T13:13:49.307Z,3.40
2022-07-30T13:16:19.617Z,6.10
2022-07-30T13:18:48.733Z,4.40
2022-07-30T13:21:17.664Z,4.65
2022-07-30T13:23:46.413Z,3.88
2022-07-30T13:26:15.847Z,3.55
2022-07-30T13:28:44.222Z,5.57
2022-07-30T13:31:12.924Z,11.20
2022-07-30T13:33:41.463Z,8.10
2022-07-30T13:36:09.937Z,3.80
2022-07-30T13:38:38.092Z,3.90
2022-07-30T13:41:06.778Z,3.72
2022-07-30T13:43:35.978Z,3.78
2022-07-30T13:46:05.662Z,6.57
2022-07-30T13:48:34.450Z,4.43
2022-07-30T13:51:03.889Z,4.22
2022-07-30T13:53:32.981Z,6.10
2022-07-30T13:56:01.220Z,3.85
2022-07-30T13:58:34.074Z,4.80
2022-07-30T14:01:07.361Z,4.13
2022-07-30T14:03:35.997Z,4.55
2022-07-30T14:06:10.923Z,3.38
2022-07-30T14:08:40.580Z,3.50
2022-07-30T14:11:08.684Z,4.20
2022-07-30T14:13:36.695Z,3.42
2022-07-30T14:16:13.839Z,3.70
2022-07-30T14:18:51.018Z,3.28
2022-07-30T14:21:19.189Z,4.00
2022-07-30T14:23:47.207Z,3.78
2022-07-30T14:26:15.489Z,4.13
2022-07-30T14:28:43.961Z,3.10
2022-07-30T14:31:12.033Z,4.82
2022-07-30T14:33:41.470Z,4.97
2022-07-30T14:36:10.501Z,4.45
2022-07-30T14:38:40.016Z,3.90
2022-07-30T14:41:09.077Z,4.38
2022-07-30T14:43:38.223Z,4.45
2022-07-30T14:46:06.188Z,4.88
2022-07-30T14:48:34.268Z,4.22
2022-07-30T14:51:15.918Z,4.10
2022-07-30T14:53:47.682Z,4.47
2022-07-30T14:56:17.605Z,3.72
2022-07-30T14:58:46.449Z,4.75
2022-07-30T15:01:15.852Z,3.88
2022-07-30T15:03:45.893Z,3.95
2022-07-30T15:06:18.307Z,3.58
2022-07-30T15:08:46.716Z,3.63
2022-07-30T15:11:15.125Z,3.67
2022-07-30T15:13:50.078Z,3.70
2022-07-30T15:16:20.139Z,3.47
2022-07-30T15:18:48.136Z,3.63
2022-07-30T15:21:16.091Z,3.25
2022-07-30T15:23:44.563Z,3.90
2022-07-30T15:26:12.934Z,3.85
2022-07-30T15:28:40.913Z,3.15
2022-07-30T15:31:09.576Z,3.60
2022-07-30T15:33:42.009Z,3.55
2022-07-30T15:36:12.455Z,3.47
2022-07-30T15:38:40.498Z,3.50
2022-07-30T15:41:13.286Z,4.85
2022-07-30T15:43:42.401Z,3.72
2022-07-30T15:46:10.491Z,3.40
2022-07-30T15:48:38.449Z,3.42
2022-07-30T15:51:06.727Z,3.45
2022-07-30T15:53:34.875Z,3.35
2022-07-30T15:56:02.908Z,3.40
2022-07-30T15:58:31.735Z,3.67
2022-07-30T16:00:59.927Z,3.88
2022-07-30T16:03:28.106Z,3.70
2022-07-30T16:05:56.352Z,4.30
2022-07-30T16:08:24.526Z,3.20
2022-07-30T16:10:52.789Z,3.92
2022-07-30T16:13:21.440Z,4.00
2022-07-30T16:15:50.885Z,3.25
2022-07-30T16:18:19.042Z,3.78
2022-07-30T16:20:47.555Z,3.30
2022-07-30T16:23:19.552Z,3.88
2022-07-30T16:25:51.058Z,3.60
2022-07-30T16:28:20.495Z,3.35
2022-07-30T16:30:50.523Z,3.80
2022-07-30T16:33:21.021Z,3.93
2022-07-30T16:35:51.192Z,3.78
2022-07-30T16:38:21.064Z,3.30
2022-07-30T16:40:49.741Z,3.40
2022-07-30T16:43:18.796Z,3.60
2022-07-30T16:45:49.014Z,3.40
2022-07-30T16:48:17.373Z,3.65
2022-07-30T16:50:46.021Z,3.17
2022-07-30T16:53:14.858Z,3.42
2022-07-30T16:55:46.763Z,3.85
2022-07-30T16:58:15.383Z,3.65
2022-07-30T17:00:43.988Z,3.63
2022-07-30T17:03:19.906Z,3.53
2022-07-30T17:05:48.821Z,3.60
2022-07-30T17:08:18.004Z,3.78
2022-07-30T17:10:47.845Z,3.80
2022-07-30T17:13:16.861Z,3.47
2022-07-30T17:15:46.979Z,3.78
2022-07-30T17:18:16.058Z,3.63
2022-07-30T17:20:45.280Z,3.63
2022-07-30T17:23:14.051Z,3.50
2022-07-30T17:25:42.206Z,4.13
2022-07-30T17:28:10.295Z,3.55
2022-07-30T17:30:38.681Z,4.15
2022-07-30T17:33:06.715Z,4.00
2022-07-30T17:35:35.515Z,4.00
2022-07-30T17:38:04.307Z,3.70
2022-07-30T17:40:32.482Z,4.15
2022-07-30T17:43:04.795Z,4.55
2022-07-30T17:45:35.368Z,4.50
2022-07-30T17:48:08.025Z,4.25
2022-07-30T17:50:36.572Z,5.03
2022-07-30T17:53:06.566Z,4.80
2022-07-30T17:55:37.040Z,5.53
2022-07-30T17:58:06.080Z,5.20
2022-07-30T18:00:35.583Z,5.80
2022-07-30T18:03:04.145Z,4.80
2022-07-30T18:05:32.553Z,3.92
2022-07-30T18:08:00.581Z,4.20
2022-07-30T18:10:28.865Z,3.50
2022-07-30T18:12:58.309Z,4.30
2022-07-30T18:15:46.397Z,3.80
2022-07-30T18:18:16.092Z,3.90
2022-07-30T18:20:48.105Z,3.70
2022-07-30T18:23:19.437Z,3.30
2022-07-30T18:25:53.042Z,2.67
2022-07-30T18:28:23.682Z,2.70
2022-07-30T18:30:52.139Z,2.90
2022-07-30T18:33:20.303Z,3.70
2022-07-30T18:35:48.817Z,3.70
2022-07-30T18:38:17.030Z,3.85
2022-07-30T18:40:57.837Z,3.53
2022-07-30T18:43:30.406Z,4.50
2022-07-30T18:46:02.742Z,3.78
2022-07-30T18:48:30.871Z,3.83
2022-07-30T18:50:58.936Z,2.92
2022-07-30T18:53:27.693Z,3.08
2022-07-30T18:55:56.411Z,3.33
2022-07-30T18:58:24.606Z,3.33
2022-07-30T19:00:53.997Z,3.20
2022-07-30T19:03:23.248Z,3.22
2022-07-30T19:05:51.997Z,3.45
2022-07-30T19:08:20.184Z,4.05
2022-07-30T19:10:48.938Z,3.88
2022-07-30T19:13:17.141Z,4.10
2022-07-30T19:15:45.384Z,3.67
2022-07-30T19:18:13.514Z,4.30
2022-07-30T19:20:43.717Z,4.50
2022-07-30T19:23:12.650Z,4.50
2022-07-30T19:25:41.482Z,4.25
2022-07-30T19:28:11.418Z,4.70
2022-07-30T19:30:40.566Z,4.82
2022-07-30T19:33:15.450Z,4.60
2022-07-30T19:35:44.912Z,4.45
2022-07-30T19:38:20.734Z,4.28
2022-07-30T19:40:50.993Z,4.43
2022-07-30T19:43:23.823Z,4.45
2022-07-30T19:45:53.272Z,4.00
2022-07-30T19:48:28.673Z,3.95
2022-07-30T19:51:00.532Z,3.90
2022-07-30T19:53:31.262Z,4.00
2022-07-30T19:56:08.333Z,4.27
2022-07-30T19:58:40.084Z,4.07
2022-07-30T20:01:11.319Z,4.20
2022-07-30T20:03:39.922Z,4.72
2022-07-30T20:06:08.799Z,4.25
2022-07-30T20:08:44.576Z,4.55
2022-07-30T20:11:16.465Z,4.60
2022-07-30T20:14:01.971Z,4.38
2022-07-30T20:16:30.088Z,4.53
2022-07-30T20:18:59.301Z,4.35
2022-07-30T20:21:56.000Z,4.25
2022-07-30T20:24:17.920Z,4.38
2022-07-30T20:26:46.218Z,4.40
2022-07-30T20:29:18.970Z,4.50
2022-07-30T20:31:49.925Z,4.20
2022-07-30T20:34:23.588Z,5.20
2022-07-30T20:36:56.458Z,5.07
2022-07-30T20:39:26.007Z,5.15
2022-07-30T20:42:08.162Z,5.43
2022-07-30T20:44:39.577Z,5.10
2022-07-30T20:47:14.250Z,4.97
2022-07-30T20:49:43.690Z,5.15
2022-07-30T20:52:12.133Z,5.13
2022-07-30T20:54:43.742Z,4.95
2022-07-30T20:59:59.310Z,4.82
2022-07-30T21:02:28.450Z,4.93
2022-07-30T21:04:59.653Z,5.03
2022-07-30T21:07:36.379Z,5.32
2022-07-30T21:10:05.411Z,4.85
2022-07-30T21:12:36.927Z,5.15
2022-07-30T21:15:23.102Z,5.07
2022-07-30T21:17:52.459Z,5.10
2022-07-30T21:20:27.299Z,5.22
2022-07-30T21:23:03.234Z,5.32
2022-07-30T21:25:32.507Z,5.00
2022-07-30T21:28:02.888Z,5.10
2022-07-30T21:30:32.867Z,5.00
2022-07-30T21:33:01.042Z,4.82
2022-07-30T21:35:31.876Z,4.53
2022-07-30T21:38:00.420Z,4.45
2022-07-30T21:40:28.687Z,4.63
2022-07-30T21:42:57.415Z,5.50
2022-07-30T21:45:26.966Z,5.18
2022-07-30T21:48:10.745Z,5.30
2022-07-30T21:50:40.283Z,5.00
2022-07-30T21:53:09.725Z,5.72
2022-07-30T21:55:52.400Z,5.10
2022-07-30T21:58:25.724Z,4.60
2022-07-30T22:00:55.662Z,5.18
2022-07-30T22:04:03.807Z,5.00
2022-07-30T22:06:12.824Z,4.82
2022-07-30T22:08:41.869Z,4.88
2022-07-30T22:11:18.944Z,4.55
2022-07-30T22:13:51.549Z,4.47
2022-07-30T22:16:22.572Z,4.40
2022-07-30T22:18:51.486Z,4.25
2022-07-30T22:21:20.228Z,4.57
2022-07-30T22:23:54.909Z,4.75
2022-07-30T22:26:27.241Z,4.60
2022-07-30T22:28:55.362Z,4.78
2022-07-30T22:31:23.331Z,4.78
2022-07-30T22:33:51.634Z,4.55
2022-07-30T22:36:25.220Z,4.68
2022-07-30T22:38:59.193Z,4.55
2022-07-30T22:41:29.051Z,4.10
2022-07-30T22:43:57.763Z,4.60
2022-07-30T22:46:31.030Z,4.95
2022-07-30T22:49:00.286Z,4.10
2022-07-30T22:54:17.321Z,4.35
2022-07-30T22:56:47.377Z,4.22
2022-07-30T22:59:15.628Z,4.32
2022-07-30T23:01:44.191Z,3.97
2022-07-30T23:04:12.564Z,4.60
2022-07-30T23:06:43.373Z,4.55
2022-07-30T23:09:12.831Z,4.07
2022-07-30T23:11:41.953Z,4.32
2022-07-30T23:12:30.622Z,4.40
2022-07-30T23:14:11.281Z,3.75
2022-07-30T23:16:40.105Z,4.40
2022-07-30T23:19:08.133Z,4.20
2022-07-30T23:21:43.058Z,4.10
2022-07-30T23:24:17.959Z,3.85
2022-07-30T23:26:48.425Z,3.80
2022-07-30T23:29:18.563Z,3.50
2022-07-30T23:31:46.727Z,4.10
2022-07-30T23:34:15.038Z,3.75
2022-07-30T23:36:43.301Z,4.03
2022-07-30T23:39:11.753Z,3.83
2022-07-30T23:41:39.916Z,4.10
2022-07-30T23:44:07.909Z,3.90
2022-07-30T23:46:37.264Z,4.00
2022-07-30T23:49:05.611Z,4.00
2022-07-30T23:51:33.783Z,3.92
2022-07-30T23:54:03.636Z,4.03
2022-07-30T23:56:32.625Z,3.40
2022-07-30T23:59:00.603Z,3.40
